sensor_id;sensor_type;location;lat;lon;timestamp;P1;durP1;ratioP1;P2;durP2;ratioP2
54831;SDS011;40730;53.068;6.572;2022-10-14T00:01:37;584.00;;;62.17;;
54831;SDS011;40730;53.068;6.572;2022-10-14T00:04:03;616.92;;;65.55;;
54831;SDS011;40730;53.068;6.572;2022-10-14T00:06:30;859.72;;;78.30;;
54831;SDS011;40730;53.068;6.572;2022-10-14T00:09:00;530.17;;;54.17;;
54831;SDS011;40730;53.068;6.572;2022-10-14T00:11:29;591.45;;;61.30;;
54831;SDS011;40730;53.068;6.572;2022-10-14T00:13:57;552.38;;;58.35;;
54831;SDS011;40730;53.068;6.572;2022-10-14T00:16:26;583.67;;;57.97;;
54831;SDS011;40730;53.068;6.572;2022-10-14T00:18:54;632.47;;;60.75;;
54831;SDS011;40730;53.068;6.572;2022-10-14T00:21:20;555.55;;;58.33;;
54831;SDS011;40730;53.068;6.572;2022-10-14T00:23:46;506.20;;;52.00;;
54831;SDS011;40730;53.068;6.572;2022-10-14T00:26:13;538.83;;;55.60;;
54831;SDS011;40730;53.068;6.572;2022-10-14T00:28:47;471.67;;;49.22;;
54831;SDS011;40730;53.068;6.572;2022-10-14T00:31:13;466.02;;;48.33;;
54831;SDS011;40730;53.068;6.572;2022-10-14T00:33:39;439.35;;;48.83;;
54831;SDS011;40730;53.068;6.572;2022-10-14T00:36:05;370.63;;;44.67;;
54831;SDS011;40730;53.068;6.572;2022-10-14T00:38:32;644.97;;;62.97;;
54831;SDS011;40730;53.068;6.572;2022-10-14T00:40:58;418.52;;;48.20;;
54831;SDS011;40730;53.068;6.572;2022-10-14T00:43:24;448.40;;;46.47;;
54831;SDS011;40730;53.068;6.572;2022-10-14T00:45:50;375.35;;;43.30;;
54831;SDS011;40730;53.068;6.572;2022-10-14T00:48:20;421.73;;;45.80;;
54831;SDS011;40730;53.068;6.572;2022-10-14T00:50:50;460.05;;;47.25;;
54831;SDS011;40730;53.068;6.572;2022-10-14T00:53:18;348.02;;;40.20;;
54831;SDS011;40730;53.068;6.572;2022-10-14T00:55:45;370.90;;;42.72;;
54831;SDS011;40730;53.068;6.572;2022-10-14T00:58:11;253.38;;;39.38;;
54831;SDS011;40730;53.068;6.572;2022-10-14T01:00:37;329.80;;;41.28;;
54831;SDS011;40730;53.068;6.572;2022-10-14T01:03:15;461.25;;;49.67;;
54831;SDS011;40730;53.068;6.572;2022-10-14T01:05:45;328.88;;;41.00;;
54831;SDS011;40730;53.068;6.572;2022-10-14T01:08:23;243.02;;;34.67;;
54831;SDS011;40730;53.068;6.572;2022-10-14T01:11:00;586.78;;;54.80;;
54831;SDS011;40730;53.068;6.572;2022-10-14T01:13:34;235.75;;;34.50;;
54831;SDS011;40730;53.068;6.572;2022-10-14T01:16:20;275.77;;;37.75;;
54831;SDS011;40730;53.068;6.572;2022-10-14T01:19:02;384.98;;;42.50;;
54831;SDS011;40730;53.068;6.572;2022-10-14T01:21:41;606.72;;;55.88;;
54831;SDS011;40730;53.068;6.572;2022-10-14T01:24:20;358.88;;;43.47;;
54831;SDS011;40730;53.068;6.572;2022-10-14T01:27:24;402.38;;;43.78;;
54831;SDS011;40730;53.068;6.572;2022-10-14T01:30:17;389.80;;;41.88;;
54831;SDS011;40730;53.068;6.572;2022-10-14T01:38:00;285.15;;;38.45;;
54831;SDS011;40730;53.068;6.572;2022-10-14T01:40:46;337.30;;;39.80;;
54831;SDS011;40730;53.068;6.572;2022-10-14T01:43:21;333.30;;;39.78;;
54831;SDS011;40730;53.068;6.572;2022-10-14T01:45:49;347.67;;;37.85;;
54831;SDS011;40730;53.068;6.572;2022-10-14T01:48:17;333.55;;;35.72;;
54831;SDS011;40730;53.068;6.572;2022-10-14T01:50:47;265.80;;;32.05;;
54831;SDS011;40730;53.068;6.572;2022-10-14T01:53:19;283.00;;;33.10;;
54831;SDS011;40730;53.068;6.572;2022-10-14T01:55:47;275.52;;;32.60;;
54831;SDS011;40730;53.068;6.572;2022-10-14T01:58:15;337.17;;;36.63;;
54831;SDS011;40730;53.068;6.572;2022-10-14T02:00:43;347.52;;;37.90;;
54831;SDS011;40730;53.068;6.572;2022-10-14T02:03:11;363.13;;;36.13;;
54831;SDS011;40730;53.068;6.572;2022-10-14T02:05:42;340.17;;;36.92;;
54831;SDS011;40730;53.068;6.572;2022-10-14T02:11:06;280.23;;;34.80;;
54831;SDS011;40730;53.068;6.572;2022-10-14T02:14:11;358.92;;;38.95;;
54831;SDS011;40730;53.068;6.572;2022-10-14T02:24:35;214.70;;;32.63;;
54831;SDS011;40730;53.068;6.572;2022-10-14T02:27:08;250.15;;;36.20;;
54831;SDS011;40730;53.068;6.572;2022-10-14T02:29:36;443.38;;;48.53;;
54831;SDS011;40730;53.068;6.572;2022-10-14T02:32:04;422.48;;;47.20;;
54831;SDS011;40730;53.068;6.572;2022-10-14T02:34:32;319.65;;;38.65;;
54831;SDS011;40730;53.068;6.572;2022-10-14T02:36:59;277.83;;;34.72;;
54831;SDS011;40730;53.068;6.572;2022-10-14T02:39:34;370.60;;;37.97;;
54831;SDS011;40730;53.068;6.572;2022-10-14T02:42:03;337.42;;;35.88;;
54831;SDS011;40730;53.068;6.572;2022-10-14T02:44:29;506.08;;;45.22;;
54831;SDS011;40730;53.068;6.572;2022-10-14T02:46:55;298.83;;;34.22;;
54831;SDS011;40730;53.068;6.572;2022-10-14T02:49:21;204.93;;;28.52;;
54831;SDS011;40730;53.068;6.572;2022-10-14T02:51:47;197.95;;;29.23;;
54831;SDS011;40730;53.068;6.572;2022-10-14T02:54:12;263.88;;;32.90;;
54831;SDS011;40730;53.068;6.572;2022-10-14T02:56:38;177.48;;;27.60;;
54831;SDS011;40730;53.068;6.572;2022-10-14T02:59:04;201.20;;;28.73;;
54831;SDS011;40730;53.068;6.572;2022-10-14T03:01:29;227.18;;;30.23;;
54831;SDS011;40730;53.068;6.572;2022-10-14T03:03:55;205.50;;;29.67;;
54831;SDS011;40730;53.068;6.572;2022-10-14T03:06:21;285.33;;;30.95;;
54831;SDS011;40730;53.068;6.572;2022-10-14T03:08:46;224.90;;;27.48;;
54831;SDS011;40730;53.068;6.572;2022-10-14T03:11:12;251.65;;;29.42;;
54831;SDS011;40730;53.068;6.572;2022-10-14T03:13:37;382.33;;;37.50;;
54831;SDS011;40730;53.068;6.572;2022-10-14T03:16:03;290.58;;;30.73;;
54831;SDS011;40730;53.068;6.572;2022-10-14T03:18:29;280.38;;;29.52;;
54831;SDS011;40730;53.068;6.572;2022-10-14T03:20:55;236.63;;;23.73;;
54831;SDS011;40730;53.068;6.572;2022-10-14T03:23:21;280.90;;;25.88;;
54831;SDS011;40730;53.068;6.572;2022-10-14T03:25:47;295.02;;;26.88;;
54831;SDS011;40730;53.068;6.572;2022-10-14T03:28:12;260.15;;;26.42;;
54831;SDS011;40730;53.068;6.572;2022-10-14T03:30:38;401.00;;;31.23;;
54831;SDS011;40730;53.068;6.572;2022-10-14T03:33:03;380.58;;;31.83;;
54831;SDS011;40730;53.068;6.572;2022-10-14T03:35:29;277.42;;;28.02;;
54831;SDS011;40730;53.068;6.572;2022-10-14T03:37:55;271.08;;;26.67;;
54831;SDS011;40730;53.068;6.572;2022-10-14T03:40:21;257.25;;;26.00;;
54831;SDS011;40730;53.068;6.572;2022-10-14T03:42:46;289.08;;;27.85;;
54831;SDS011;40730;53.068;6.572;2022-10-14T03:45:12;320.60;;;30.58;;
54831;SDS011;40730;53.068;6.572;2022-10-14T03:47:38;332.63;;;33.30;;
54831;SDS011;40730;53.068;6.572;2022-10-14T03:50:04;362.23;;;34.50;;
54831;SDS011;40730;53.068;6.572;2022-10-14T03:52:30;263.90;;;30.75;;
54831;SDS011;40730;53.068;6.572;2022-10-14T03:54:56;244.82;;;31.45;;
54831;SDS011;40730;53.068;6.572;2022-10-14T03:57:22;249.20;;;30.38;;
54831;SDS011;40730;53.068;6.572;2022-10-14T03:59:48;236.20;;;29.30;;
54831;SDS011;40730;53.068;6.572;2022-10-14T04:02:13;226.57;;;27.65;;
54831;SDS011;40730;53.068;6.572;2022-10-14T04:04:39;158.15;;;22.27;;
54831;SDS011;40730;53.068;6.572;2022-10-14T04:07:04;192.25;;;23.20;;
54831;SDS011;40730;53.068;6.572;2022-10-14T04:09:30;134.93;;;20.90;;
54831;SDS011;40730;53.068;6.572;2022-10-14T04:11:56;204.82;;;25.05;;
54831;SDS011;40730;53.068;6.572;2022-10-14T04:14:23;187.23;;;24.98;;
54831;SDS011;40730;53.068;6.572;2022-10-14T04:16:49;157.20;;;22.83;;
54831;SDS011;40730;53.068;6.572;2022-10-14T04:19:14;241.68;;;25.55;;
54831;SDS011;40730;53.068;6.572;2022-10-14T04:21:40;176.35;;;23.35;;
54831;SDS011;40730;53.068;6.572;2022-10-14T04:24:06;208.52;;;26.20;;
54831;SDS011;40730;53.068;6.572;2022-10-14T04:26:32;225.60;;;24.20;;
54831;SDS011;40730;53.068;6.572;2022-10-14T04:28:57;187.07;;;22.63;;
54831;SDS011;40730;53.068;6.572;2022-10-14T04:31:23;272.75;;;26.83;;
54831;SDS011;40730;53.068;6.572;2022-10-14T04:33:49;224.13;;;24.50;;
54831;SDS011;40730;53.068;6.572;2022-10-14T04:36:14;219.48;;;24.40;;
54831;SDS011;40730;53.068;6.572;2022-10-14T04:38:40;219.63;;;25.10;;
54831;SDS011;40730;53.068;6.572;2022-10-14T04:41:05;219.93;;;25.63;;
54831;SDS011;40730;53.068;6.572;2022-10-14T04:43:31;292.10;;;28.02;;
54831;SDS011;40730;53.068;6.572;2022-10-14T04:45:57;237.35;;;27.38;;
54831;SDS011;40730;53.068;6.572;2022-10-14T04:48:22;195.57;;;22.60;;
54831;SDS011;40730;53.068;6.572;2022-10-14T04:50:51;210.40;;;25.33;;
54831;SDS011;40730;53.068;6.572;2022-10-14T04:53:18;209.38;;;25.60;;
54831;SDS011;40730;53.068;6.572;2022-10-14T04:55:44;264.38;;;27.33;;
54831;SDS011;40730;53.068;6.572;2022-10-14T04:58:10;261.70;;;27.80;;
54831;SDS011;40730;53.068;6.572;2022-10-14T05:00:37;212.55;;;27.20;;
54831;SDS011;40730;53.068;6.572;2022-10-14T05:03:03;243.07;;;28.00;;
54831;SDS011;40730;53.068;6.572;2022-10-14T05:05:28;250.32;;;29.42;;
54831;SDS011;40730;53.068;6.572;2022-10-14T05:07:54;209.27;;;27.33;;
54831;SDS011;40730;53.068;6.572;2022-10-14T05:10:19;225.80;;;26.83;;
54831;SDS011;40730;53.068;6.572;2022-10-14T05:12:45;219.60;;;26.55;;
54831;SDS011;40730;53.068;6.572;2022-10-14T05:15:11;267.75;;;28.48;;
54831;SDS011;40730;53.068;6.572;2022-10-14T05:17:37;270.30;;;31.92;;
54831;SDS011;40730;53.068;6.572;2022-10-14T05:20:03;247.68;;;30.33;;
54831;SDS011;40730;53.068;6.572;2022-10-14T05:22:30;260.73;;;31.00;;
54831;SDS011;40730;53.068;6.572;2022-10-14T05:24:55;986.15;;;93.88;;
54831;SDS011;40730;53.068;6.572;2022-10-14T05:27:21;290.20;;;33.65;;
54831;SDS011;40730;53.068;6.572;2022-10-14T05:29:46;292.90;;;33.33;;
54831;SDS011;40730;53.068;6.572;2022-10-14T05:32:13;278.67;;;31.00;;
54831;SDS011;40730;53.068;6.572;2022-10-14T05:34:39;245.40;;;30.45;;
54831;SDS011;40730;53.068;6.572;2022-10-14T05:37:04;314.92;;;34.15;;
54831;SDS011;40730;53.068;6.572;2022-10-14T05:39:30;299.23;;;31.65;;
54831;SDS011;40730;53.068;6.572;2022-10-14T05:41:56;261.80;;;32.33;;
54831;SDS011;40730;53.068;6.572;2022-10-14T05:44:21;207.75;;;27.70;;
54831;SDS011;40730;53.068;6.572;2022-10-14T05:46:47;216.63;;;29.23;;
54831;SDS011;40730;53.068;6.572;2022-10-14T05:49:12;260.70;;;31.25;;
54831;SDS011;40730;53.068;6.572;2022-10-14T05:51:38;223.50;;;29.10;;
54831;SDS011;40730;53.068;6.572;2022-10-14T05:54:04;263.67;;;30.88;;
54831;SDS011;40730;53.068;6.572;2022-10-14T05:56:30;301.17;;;32.97;;
54831;SDS011;40730;53.068;6.572;2022-10-14T05:58:55;240.07;;;30.65;;
54831;SDS011;40730;53.068;6.572;2022-10-14T06:01:21;197.20;;;29.00;;
54831;SDS011;40730;53.068;6.572;2022-10-14T06:03:50;314.83;;;35.40;;
54831;SDS011;40730;53.068;6.572;2022-10-14T06:06:16;282.25;;;31.80;;
54831;SDS011;40730;53.068;6.572;2022-10-14T06:08:42;265.10;;;31.85;;
54831;SDS011;40730;53.068;6.572;2022-10-14T06:11:08;275.67;;;32.42;;
54831;SDS011;40730;53.068;6.572;2022-10-14T06:13:35;289.90;;;32.53;;
54831;SDS011;40730;53.068;6.572;2022-10-14T06:16:01;310.58;;;34.22;;
54831;SDS011;40730;53.068;6.572;2022-10-14T06:18:28;331.50;;;34.97;;
54831;SDS011;40730;53.068;6.572;2022-10-14T06:20:54;257.33;;;32.28;;
54831;SDS011;40730;53.068;6.572;2022-10-14T06:23:19;270.77;;;34.15;;
54831;SDS011;40730;53.068;6.572;2022-10-14T06:25:45;357.70;;;36.22;;
54831;SDS011;40730;53.068;6.572;2022-10-14T06:28:11;324.67;;;34.58;;
54831;SDS011;40730;53.068;6.572;2022-10-14T06:30:36;350.23;;;35.60;;
54831;SDS011;40730;53.068;6.572;2022-10-14T06:33:02;300.50;;;32.67;;
54831;SDS011;40730;53.068;6.572;2022-10-14T06:35:28;312.58;;;34.75;;
54831;SDS011;40730;53.068;6.572;2022-10-14T06:37:53;313.85;;;36.35;;
54831;SDS011;40730;53.068;6.572;2022-10-14T06:40:19;349.98;;;40.85;;
54831;SDS011;40730;53.068;6.572;2022-10-14T06:42:45;290.63;;;36.60;;
54831;SDS011;40730;53.068;6.572;2022-10-14T06:45:10;277.98;;;38.47;;
54831;SDS011;40730;53.068;6.572;2022-10-14T06:47:36;322.48;;;40.70;;
54831;SDS011;40730;53.068;6.572;2022-10-14T06:50:02;290.90;;;36.65;;
54831;SDS011;40730;53.068;6.572;2022-10-14T06:52:28;287.00;;;37.47;;
54831;SDS011;40730;53.068;6.572;2022-10-14T06:54:53;278.98;;;38.08;;
54831;SDS011;40730;53.068;6.572;2022-10-14T06:57:19;262.10;;;35.42;;
54831;SDS011;40730;53.068;6.572;2022-10-14T06:59:45;257.80;;;36.90;;
54831;SDS011;40730;53.068;6.572;2022-10-14T07:02:10;249.55;;;36.78;;
54831;SDS011;40730;53.068;6.572;2022-10-14T07:04:37;227.98;;;34.13;;
54831;SDS011;40730;53.068;6.572;2022-10-14T07:07:03;174.68;;;33.53;;
54831;SDS011;40730;53.068;6.572;2022-10-14T07:09:30;211.82;;;34.92;;
54831;SDS011;40730;53.068;6.572;2022-10-14T07:11:56;201.75;;;34.75;;
54831;SDS011;40730;53.068;6.572;2022-10-14T07:14:23;194.32;;;36.60;;
54831;SDS011;40730;53.068;6.572;2022-10-14T07:16:48;196.23;;;36.05;;
54831;SDS011;40730;53.068;6.572;2022-10-14T07:19:14;157.32;;;33.50;;
54831;SDS011;40730;53.068;6.572;2022-10-14T07:21:39;162.40;;;32.38;;
54831;SDS011;40730;53.068;6.572;2022-10-14T07:24:07;170.88;;;34.90;;
54831;SDS011;40730;53.068;6.572;2022-10-14T07:26:33;160.05;;;37.30;;
54831;SDS011;40730;53.068;6.572;2022-10-14T07:28:58;141.93;;;33.03;;
54831;SDS011;40730;53.068;6.572;2022-10-14T07:31:24;160.15;;;36.25;;
54831;SDS011;40730;53.068;6.572;2022-10-14T07:33:50;148.20;;;37.35;;
54831;SDS011;40730;53.068;6.572;2022-10-14T07:36:16;150.57;;;36.08;;
54831;SDS011;40730;53.068;6.572;2022-10-14T07:38:43;131.50;;;35.75;;
54831;SDS011;40730;53.068;6.572;2022-10-14T07:41:10;127.18;;;36.92;;
54831;SDS011;40730;53.068;6.572;2022-10-14T07:43:41;134.95;;;37.10;;
54831;SDS011;40730;53.068;6.572;2022-10-14T07:46:07;144.65;;;38.45;;
54831;SDS011;40730;53.068;6.572;2022-10-14T07:48:34;142.60;;;37.72;;
54831;SDS011;40730;53.068;6.572;2022-10-14T07:51:00;136.68;;;38.10;;
54831;SDS011;40730;53.068;6.572;2022-10-14T07:53:26;140.50;;;37.00;;
54831;SDS011;40730;53.068;6.572;2022-10-14T07:55:55;133.52;;;39.25;;
54831;SDS011;40730;53.068;6.572;2022-10-14T07:58:24;129.38;;;37.78;;
54831;SDS011;40730;53.068;6.572;2022-10-14T08:00:51;129.63;;;37.35;;
54831;SDS011;40730;53.068;6.572;2022-10-14T08:03:18;139.98;;;38.50;;
54831;SDS011;40730;53.068;6.572;2022-10-14T08:05:45;119.60;;;36.90;;
54831;SDS011;40730;53.068;6.572;2022-10-14T08:08:11;128.90;;;37.60;;
54831;SDS011;40730;53.068;6.572;2022-10-14T08:10:37;116.68;;;35.15;;
54831;SDS011;40730;53.068;6.572;2022-10-14T08:13:04;107.15;;;34.47;;
54831;SDS011;40730;53.068;6.572;2022-10-14T08:15:36;103.93;;;35.20;;
54831;SDS011;40730;53.068;6.572;2022-10-14T08:18:05;97.68;;;33.13;;
54831;SDS011;40730;53.068;6.572;2022-10-14T08:20:33;96.50;;;33.22;;
54831;SDS011;40730;53.068;6.572;2022-10-14T08:22:59;94.30;;;31.13;;
54831;SDS011;40730;53.068;6.572;2022-10-14T08:25:25;89.85;;;31.60;;
54831;SDS011;40730;53.068;6.572;2022-10-14T08:27:51;93.93;;;32.65;;
54831;SDS011;40730;53.068;6.572;2022-10-14T08:30:18;90.95;;;31.77;;
54831;SDS011;40730;53.068;6.572;2022-10-14T08:32:44;83.78;;;30.25;;
54831;SDS011;40730;53.068;6.572;2022-10-14T08:35:10;85.22;;;29.92;;
54831;SDS011;40730;53.068;6.572;2022-10-14T08:37:36;81.55;;;32.10;;
54831;SDS011;40730;53.068;6.572;2022-10-14T08:40:02;84.38;;;31.33;;
54831;SDS011;40730;53.068;6.572;2022-10-14T08:45:14;73.80;;;28.55;;
54831;SDS011;40730;53.068;6.572;2022-10-14T08:47:44;72.95;;;28.30;;
54831;SDS011;40730;53.068;6.572;2022-10-14T08:50:30;70.32;;;28.85;;
54831;SDS011;40730;53.068;6.572;2022-10-14T08:53:06;74.47;;;28.48;;
54831;SDS011;40730;53.068;6.572;2022-10-14T08:58:20;66.25;;;29.85;;
54831;SDS011;40730;53.068;6.572;2022-10-14T09:01:18;75.32;;;30.20;;
54831;SDS011;40730;53.068;6.572;2022-10-14T09:03:49;63.20;;;27.38;;
54831;SDS011;40730;53.068;6.572;2022-10-14T09:06:37;69.30;;;29.33;;
54831;SDS011;40730;53.068;6.572;2022-10-14T09:09:06;65.20;;;28.73;;
54831;SDS011;40730;53.068;6.572;2022-10-14T09:11:55;66.07;;;27.85;;
54831;SDS011;40730;53.068;6.572;2022-10-14T09:14:25;67.13;;;30.00;;
54831;SDS011;40730;53.068;6.572;2022-10-14T09:17:05;72.15;;;30.52;;
54831;SDS011;40730;53.068;6.572;2022-10-14T09:19:42;63.60;;;28.83;;
54831;SDS011;40730;53.068;6.572;2022-10-14T09:22:18;67.95;;;27.73;;
54831;SDS011;40730;53.068;6.572;2022-10-14T09:24:43;64.40;;;28.58;;
54831;SDS011;40730;53.068;6.572;2022-10-14T09:27:19;59.97;;;28.25;;
54831;SDS011;40730;53.068;6.572;2022-10-14T09:29:47;62.33;;;29.38;;
54831;SDS011;40730;53.068;6.572;2022-10-14T09:32:28;58.97;;;28.27;;
54831;SDS011;40730;53.068;6.572;2022-10-14T09:34:58;60.33;;;28.23;;
54831;SDS011;40730;53.068;6.572;2022-10-14T09:37:28;66.47;;;28.92;;
54831;SDS011;40730;53.068;6.572;2022-10-14T09:45:17;58.60;;;27.75;;
54831;SDS011;40730;53.068;6.572;2022-10-14T09:50:21;65.47;;;28.00;;
54831;SDS011;40730;53.068;6.572;2022-10-14T09:53:44;62.20;;;27.90;;
54831;SDS011;40730;53.068;6.572;2022-10-14T09:55:54;71.60;;;28.60;;
54831;SDS011;40730;53.068;6.572;2022-10-14T09:58:26;63.47;;;29.02;;
54831;SDS011;40730;53.068;6.572;2022-10-14T10:01:16;68.78;;;29.30;;
54831;SDS011;40730;53.068;6.572;2022-10-14T10:03:44;59.55;;;26.65;;
54831;SDS011;40730;53.068;6.572;2022-10-14T10:06:12;78.43;;;30.70;;
54831;SDS011;40730;53.068;6.572;2022-10-14T10:09:01;70.70;;;28.30;;
54831;SDS011;40730;53.068;6.572;2022-10-14T10:14:21;65.30;;;26.73;;
54831;SDS011;40730;53.068;6.572;2022-10-14T10:17:11;60.97;;;26.00;;
54831;SDS011;40730;53.068;6.572;2022-10-14T10:24:47;68.45;;;26.05;;
54831;SDS011;40730;53.068;6.572;2022-10-14T10:27:24;63.30;;;24.77;;
54831;SDS011;40730;53.068;6.572;2022-10-14T10:32:43;68.95;;;25.02;;
54831;SDS011;40730;53.068;6.572;2022-10-14T10:54:54;63.65;;;22.40;;
54831;SDS011;40730;53.068;6.572;2022-10-14T11:00:47;52.45;;;19.90;;
54831;SDS011;40730;53.068;6.572;2022-10-14T11:06:13;47.28;;;17.83;;
54831;SDS011;40730;53.068;6.572;2022-10-14T11:09:10;47.45;;;18.25;;
54831;SDS011;40730;53.068;6.572;2022-10-14T11:12:46;52.50;;;18.42;;
54831;SDS011;40730;53.068;6.572;2022-10-14T11:15:00;50.53;;;17.65;;
54831;SDS011;40730;53.068;6.572;2022-10-14T11:18:02;48.20;;;17.05;;
54831;SDS011;40730;53.068;6.572;2022-10-14T11:20:41;48.38;;;16.15;;
54831;SDS011;40730;53.068;6.572;2022-10-14T11:26:14;57.63;;;18.95;;
54831;SDS011;40730;53.068;6.572;2022-10-14T11:29:50;49.15;;;17.38;;
54831;SDS011;40730;53.068;6.572;2022-10-14T11:32:20;48.47;;;17.40;;
54831;SDS011;40730;53.068;6.572;2022-10-14T11:35:24;44.35;;;14.68;;
54831;SDS011;40730;53.068;6.572;2022-10-14T11:43:57;35.03;;;14.05;;
54831;SDS011;40730;53.068;6.572;2022-10-14T11:46:42;32.13;;;13.05;;
54831;SDS011;40730;53.068;6.572;2022-10-14T11:49:17;34.22;;;13.90;;
54831;SDS011;40730;53.068;6.572;2022-10-14T11:51:57;40.75;;;15.38;;
54831;SDS011;40730;53.068;6.572;2022-10-14T11:57:23;38.95;;;14.48;;
54831;SDS011;40730;53.068;6.572;2022-10-14T12:00:03;38.55;;;15.05;;
54831;SDS011;40730;53.068;6.572;2022-10-14T12:05:43;35.55;;;14.90;;
54831;SDS011;40730;53.068;6.572;2022-10-14T12:09:13;35.42;;;15.30;;
54831;SDS011;40730;53.068;6.572;2022-10-14T12:11:38;37.25;;;14.65;;
54831;SDS011;40730;53.068;6.572;2022-10-14T12:14:43;36.88;;;15.57;;
54831;SDS011;40730;53.068;6.572;2022-10-14T12:17:59;35.70;;;15.57;;
54831;SDS011;40730;53.068;6.572;2022-10-14T12:20:06;29.73;;;14.73;;
54831;SDS011;40730;53.068;6.572;2022-10-14T12:22:41;43.72;;;18.20;;
54831;SDS011;40730;53.068;6.572;2022-10-14T12:25:11;46.50;;;19.02;;
54831;SDS011;40730;53.068;6.572;2022-10-14T12:27:41;43.75;;;17.92;;
54831;SDS011;40730;53.068;6.572;2022-10-14T12:30:27;41.05;;;17.17;;
54831;SDS011;40730;53.068;6.572;2022-10-14T12:33:07;48.67;;;18.42;;
54831;SDS011;40730;53.068;6.572;2022-10-14T12:38:24;46.83;;;18.73;;
54831;SDS011;40730;53.068;6.572;2022-10-14T12:40:54;54.67;;;22.17;;
54831;SDS011;40730;53.068;6.572;2022-10-14T12:43:42;54.67;;;23.17;;
54831;SDS011;40730;53.068;6.572;2022-10-14T12:46:23;66.43;;;24.10;;
54831;SDS011;40730;53.068;6.572;2022-10-14T12:48:49;66.78;;;24.95;;
54831;SDS011;40730;53.068;6.572;2022-10-14T12:51:17;71.70;;;26.17;;
54831;SDS011;40730;53.068;6.572;2022-10-14T12:54:05;68.43;;;26.67;;
54831;SDS011;40730;53.068;6.572;2022-10-14T12:56:43;72.07;;;27.48;;
54831;SDS011;40730;53.068;6.572;2022-10-14T12:59:23;76.40;;;28.80;;
54831;SDS011;40730;53.068;6.572;2022-10-14T13:02:17;88.55;;;31.27;;
54831;SDS011;40730;53.068;6.572;2022-10-14T13:04:52;89.30;;;33.47;;
54831;SDS011;40730;53.068;6.572;2022-10-14T13:09:57;94.38;;;33.78;;
54831;SDS011;40730;53.068;6.572;2022-10-14T13:17:28;102.60;;;35.63;;
54831;SDS011;40730;53.068;6.572;2022-10-14T13:23:33;101.40;;;37.15;;
54831;SDS011;40730;53.068;6.572;2022-10-14T13:28:43;100.03;;;36.45;;
54831;SDS011;40730;53.068;6.572;2022-10-14T13:31:22;112.95;;;39.35;;
54831;SDS011;40730;53.068;6.572;2022-10-14T13:33:59;103.60;;;39.25;;
54831;SDS011;40730;53.068;6.572;2022-10-14T13:36:58;112.60;;;39.58;;
54831;SDS011;40730;53.068;6.572;2022-10-14T13:39:25;102.32;;;37.30;;
54831;SDS011;40730;53.068;6.572;2022-10-14T13:41:51;110.50;;;39.03;;
54831;SDS011;40730;53.068;6.572;2022-10-14T13:44:17;102.68;;;37.28;;
54831;SDS011;40730;53.068;6.572;2022-10-14T13:46:46;106.18;;;38.85;;
54831;SDS011;40730;53.068;6.572;2022-10-14T13:49:14;105.70;;;38.10;;
54831;SDS011;40730;53.068;6.572;2022-10-14T13:51:49;96.45;;;36.97;;
54831;SDS011;40730;53.068;6.572;2022-10-14T13:54:28;98.05;;;37.22;;
54831;SDS011;40730;53.068;6.572;2022-10-14T13:57:14;113.93;;;37.78;;
54831;SDS011;40730;53.068;6.572;2022-10-14T13:59:42;107.45;;;38.45;;
54831;SDS011;40730;53.068;6.572;2022-10-14T14:02:12;100.07;;;38.25;;
54831;SDS011;40730;53.068;6.572;2022-10-14T14:04:41;90.50;;;37.90;;
54831;SDS011;40730;53.068;6.572;2022-10-14T14:07:15;101.93;;;39.55;;
54831;SDS011;40730;53.068;6.572;2022-10-14T14:09:47;107.10;;;42.20;;
54831;SDS011;40730;53.068;6.572;2022-10-14T14:12:18;85.07;;;36.70;;
54831;SDS011;40730;53.068;6.572;2022-10-14T14:14:45;91.88;;;38.85;;
54831;SDS011;40730;53.068;6.572;2022-10-14T14:17:17;85.55;;;35.80;;
54831;SDS011;40730;53.068;6.572;2022-10-14T14:19:45;76.53;;;33.03;;
54831;SDS011;40730;53.068;6.572;2022-10-14T14:24:40;67.60;;;31.48;;
54831;SDS011;40730;53.068;6.572;2022-10-14T14:30:15;71.75;;;31.92;;
54831;SDS011;40730;53.068;6.572;2022-10-14T14:33:05;64.65;;;28.98;;
54831;SDS011;40730;53.068;6.572;2022-10-14T14:35:35;55.60;;;27.48;;
54831;SDS011;40730;53.068;6.572;2022-10-14T14:38:00;45.50;;;24.95;;
54831;SDS011;40730;53.068;6.572;2022-10-14T14:40:29;43.47;;;24.30;;
54831;SDS011;40730;53.068;6.572;2022-10-14T14:42:56;39.15;;;21.40;;
54831;SDS011;40730;53.068;6.572;2022-10-14T14:45:25;41.47;;;23.10;;
54831;SDS011;40730;53.068;6.572;2022-10-14T14:47:55;39.70;;;23.08;;
54831;SDS011;40730;53.068;6.572;2022-10-14T14:50:32;34.38;;;20.42;;
54831;SDS011;40730;53.068;6.572;2022-10-14T14:53:03;38.83;;;22.35;;
54831;SDS011;40730;53.068;6.572;2022-10-14T14:58:25;41.53;;;21.67;;
54831;SDS011;40730;53.068;6.572;2022-10-14T15:00:58;43.17;;;22.63;;
54831;SDS011;40730;53.068;6.572;2022-10-14T15:03:25;38.92;;;22.58;;
54831;SDS011;40730;53.068;6.572;2022-10-14T15:06:02;39.33;;;21.58;;
54831;SDS011;40730;53.068;6.572;2022-10-14T15:08:33;34.80;;;20.38;;
54831;SDS011;40730;53.068;6.572;2022-10-14T15:11:03;33.42;;;19.98;;
54831;SDS011;40730;53.068;6.572;2022-10-14T15:16:02;32.20;;;19.33;;
54831;SDS011;40730;53.068;6.572;2022-10-14T15:18:28;32.65;;;19.60;;
54831;SDS011;40730;53.068;6.572;2022-10-14T15:26:33;30.83;;;18.92;;
54831;SDS011;40730;53.068;6.572;2022-10-14T15:31:28;27.13;;;17.75;;
54831;SDS011;40730;53.068;6.572;2022-10-14T15:33:53;33.78;;;19.75;;
54831;SDS011;40730;53.068;6.572;2022-10-14T15:36:19;39.05;;;21.52;;
54831;SDS011;40730;53.068;6.572;2022-10-14T15:38:45;33.17;;;20.02;;
54831;SDS011;40730;53.068;6.572;2022-10-14T15:41:10;34.92;;;22.35;;
54831;SDS011;40730;53.068;6.572;2022-10-14T15:43:36;33.35;;;21.73;;
54831;SDS011;40730;53.068;6.572;2022-10-14T15:46:04;35.70;;;21.20;;
54831;SDS011;40730;53.068;6.572;2022-10-14T15:48:50;34.50;;;20.40;;
54831;SDS011;40730;53.068;6.572;2022-10-14T15:51:19;34.70;;;21.70;;
54831;SDS011;40730;53.068;6.572;2022-10-14T15:53:45;31.92;;;21.30;;
54831;SDS011;40730;53.068;6.572;2022-10-14T15:56:11;30.55;;;20.42;;
54831;SDS011;40730;53.068;6.572;2022-10-14T15:58:37;31.52;;;19.40;;
54831;SDS011;40730;53.068;6.572;2022-10-14T16:01:03;32.03;;;19.38;;
54831;SDS011;40730;53.068;6.572;2022-10-14T16:03:30;32.90;;;20.67;;
54831;SDS011;40730;53.068;6.572;2022-10-14T16:05:57;28.67;;;19.30;;
54831;SDS011;40730;53.068;6.572;2022-10-14T16:08:23;25.92;;;17.83;;
54831;SDS011;40730;53.068;6.572;2022-10-14T16:10:49;31.25;;;19.10;;
54831;SDS011;40730;53.068;6.572;2022-10-14T16:13:18;29.65;;;19.25;;
54831;SDS011;40730;53.068;6.572;2022-10-14T16:15:45;41.05;;;28.83;;
54831;SDS011;40730;53.068;6.572;2022-10-14T16:18:14;32.42;;;21.05;;
54831;SDS011;40730;53.068;6.572;2022-10-14T16:20:42;29.25;;;19.55;;
54831;SDS011;40730;53.068;6.572;2022-10-14T16:23:10;26.45;;;19.30;;
54831;SDS011;40730;53.068;6.572;2022-10-14T16:25:40;27.92;;;18.42;;
54831;SDS011;40730;53.068;6.572;2022-10-14T16:28:09;26.38;;;17.92;;
54831;SDS011;40730;53.068;6.572;2022-10-14T16:30:36;31.33;;;20.00;;